Time;durP1;ratioP1;P1;durP2;ratioP2;P2;SDS_P1;SDS_P2;PMS_P1;PMS_P2;Temp;Humidity;BMP_temperature;BMP_pressure;BME280_temperature;BME280_humidity;BME280_pressure;Samples;Min_cycle;Max_cycle;Signal;HPM_P1;HPM_P2
2022/05/12 00:01:05;;;;;;;14.02;9.52;;;;;;;;;;5035962;28;20633;-46
2022/05/12 00:03:32;;;;;;;13.63;9.88;;;;;;;;;;5035941;28;20205;-43
2022/05/12 00:06:00;;;;;;;13.15;9.75;;;;;;;;;;5036487;28;20714;-43
2022/05/12 00:08:26;;;;;;;15.02;9.70;;;;;;;;;;5036317;28;20524;-42
2022/05/12 00:10:54;;;;;;;16.98;9.15;;;;;;;;;;5035956;28;20264;-45
2022/05/12 00:13:21;;;;;;;19.00;9.95;;;;;;;;;;5036089;28;20205;-43
2022/05/12 00:15:48;;;;;;;13.88;10.13;;;;;;;;;;5034784;28;20224;-44
2022/05/12 00:18:15;;;;;;;16.27;9.70;;;;;;;;;;5036246;28;20535;-44
2022/05/12 00:20:42;;;;;;;12.93;9.77;;;;;;;;;;5036356;28;20538;-44
2022/05/12 00:23:22;;;;;;;13.70;9.27;;;;;;;;;;5035964;28;20197;-45
2022/05/12 00:25:50;;;;;;;12.07;9.32;;;;;;;;;;5035988;28;20201;-43
2022/05/12 00:28:20;;;;;;;15.93;10.10;;;;;;;;;;5035675;28;20590;-43
2022/05/12 00:30:49;;;;;;;17.73;9.57;;;;;;;;;;5035523;28;20655;-43
2022/05/12 00:33:19;;;;;;;13.85;10.23;;;;;;;;;;5036197;28;20200;-43
2022/05/12 00:35:46;;;;;;;13.98;9.40;;;;;;;;;;5035985;28;20201;-43
2022/05/12 00:38:13;;;;;;;13.07;9.52;;;;;;;;;;5035735;28;20205;-44
2022/05/12 00:40:43;;;;;;;14.93;9.35;;;;;;;;;;5035163;28;20208;-44
2022/05/12 00:43:41;;;;;;;12.40;9.18;;;;;;;;;;5035119;28;20205;-45
2022/05/12 00:46:15;;;;;;;14.43;9.82;;;;;;;;;;5035136;28;20217;-43
2022/05/12 00:48:43;;;;;;;12.82;9.27;;;;;;;;;;5035692;28;20206;-43
2022/05/12 00:51:18;;;;;;;16.17;9.98;;;;;;;;;;5035000;28;20244;-44
2022/05/12 00:53:46;;;;;;;15.75;10.60;;;;;;;;;;5035329;28;20208;-43
2022/05/12 00:56:15;;;;;;;14.82;10.48;;;;;;;;;;5035735;28;20197;-43
2022/05/12 00:58:42;;;;;;;15.75;10.95;;;;;;;;;;5035571;28;20217;-44
2022/05/12 01:01:10;;;;;;;14.98;9.48;;;;;;;;;;5034214;28;20293;-42
2022/05/12 01:03:39;;;;;;;17.77;9.77;;;;;;;;;;5035334;28;20209;-43
2022/05/12 01:06:07;;;;;;;14.35;9.80;;;;;;;;;;5034995;28;20196;-44
2022/05/12 01:08:34;;;;;;;13.32;9.73;;;;;;;;;;5034999;28;20274;-44
2022/05/12 01:11:07;;;;;;;16.65;10.35;;;;;;;;;;5035213;28;20278;-42
2022/05/12 01:13:34;;;;;;;16.83;10.20;;;;;;;;;;5034517;28;20208;-43
2022/05/12 01:16:02;;;;;;;16.45;10.48;;;;;;;;;;5033990;28;20197;-43
2022/05/12 01:18:31;;;;;;;13.10;9.57;;;;;;;;;;5034859;28;20224;-43
2022/05/12 01:20:59;;;;;;;14.82;9.45;;;;;;;;;;5034641;28;20299;-43
2022/05/12 01:23:32;;;;;;;17.08;9.90;;;;;;;;;;5034660;28;20620;-43
2022/05/12 01:26:05;;;;;;;17.33;10.30;;;;;;;;;;5034632;28;20540;-42
2022/05/12 01:28:32;;;;;;;16.33;10.00;;;;;;;;;;5034908;28;20216;-43
2022/05/12 01:31:01;;;;;;;21.85;10.23;;;;;;;;;;5034431;28;20233;-44
2022/05/12 01:33:28;;;;;;;15.00;9.93;;;;;;;;;;5034584;28;20212;-43
2022/05/12 01:35:55;;;;;;;15.35;10.32;;;;;;;;;;5034736;28;20201;-43
2022/05/12 01:38:23;;;;;;;15.93;10.13;;;;;;;;;;5034609;28;20204;-42
2022/05/12 01:40:51;;;;;;;17.38;9.77;;;;;;;;;;5034952;28;20228;-43
2022/05/12 01:43:19;;;;;;;15.18;10.15;;;;;;;;;;5034754;28;20279;-43
2022/05/12 01:45:46;;;;;;;15.50;9.50;;;;;;;;;;5034692;28;20259;-43
2022/05/12 01:48:14;;;;;;;15.65;10.20;;;;;;;;;;5034921;28;20234;-45
2022/05/12 01:50:43;;;;;;;15.63;10.07;;;;;;;;;;5034332;28;20268;-43
2022/05/12 01:53:11;;;;;;;15.52;9.35;;;;;;;;;;5033871;28;20298;-43
2022/05/12 01:55:39;;;;;;;17.52;9.88;;;;;;;;;;5034721;28;20232;-43
2022/05/12 01:58:06;;;;;;;13.63;9.40;;;;;;;;;;5034273;28;20196;-46
2022/05/12 02:00:34;;;;;;;14.57;9.23;;;;;;;;;;5034644;28;20205;-43
2022/05/12 02:03:01;;;;;;;15.10;10.07;;;;;;;;;;5036801;28;20235;-44
2022/05/12 02:05:33;;;;;;;14.52;9.20;;;;;;;;;;5036253;28;20319;-44
2022/05/12 02:08:00;;;;;;;11.05;9.45;;;;;;;;;;5036121;28;20231;-43
2022/05/12 02:10:30;;;;;;;15.63;9.50;;;;;;;;;;5018026;28;20217;-43
2022/05/12 02:12:57;;;;;;;15.23;9.30;;;;;;;;;;5018277;28;20202;-43
2022/05/12 02:15:24;;;;;;;15.02;9.20;;;;;;;;;;5018247;28;20206;-43
2022/05/12 02:17:51;;;;;;;12.30;8.90;;;;;;;;;;5017980;28;20300;-43
2022/05/12 02:20:20;;;;;;;17.65;9.13;;;;;;;;;;5017779;28;20198;-45
2022/05/12 02:22:48;;;;;;;15.48;10.15;;;;;;;;;;5017712;28;20268;-45
2022/05/12 02:25:16;;;;;;;15.20;9.23;;;;;;;;;;5017922;28;20201;-42
2022/05/12 02:27:45;;;;;;;12.98;9.13;;;;;;;;;;5017745;28;20229;-43
2022/05/12 02:30:25;;;;;;;12.77;8.93;;;;;;;;;;5016443;28;20205;-42
2022/05/12 02:32:52;;;;;;;13.40;8.80;;;;;;;;;;5017657;28;20233;-43
2022/05/12 02:35:20;;;;;;;15.65;9.55;;;;;;;;;;5017664;28;20220;-43
2022/05/12 02:37:47;;;;;;;14.85;9.45;;;;;;;;;;5017501;28;20198;-44
2022/05/12 02:40:20;;;;;;;13.27;9.65;;;;;;;;;;5017764;28;20211;-43
2022/05/12 02:42:47;;;;;;;13.50;9.45;;;;;;;;;;5017645;28;20206;-46
2022/05/12 02:45:15;;;;;;;15.27;9.23;;;;;;;;;;5017693;28;20236;-43
2022/05/12 02:47:43;;;;;;;14.80;9.05;;;;;;;;;;5017446;28;20209;-43
2022/05/12 02:50:12;;;;;;;23.65;8.88;;;;;;;;;;5016993;28;20201;-45
2022/05/12 02:52:39;;;;;;;12.07;8.70;;;;;;;;;;5017435;28;20253;-43
2022/05/12 02:55:07;;;;;;;15.43;9.38;;;;;;;;;;5017228;28;20213;-43
2022/05/12 02:57:35;;;;;;;12.77;9.23;;;;;;;;;;5048858;28;20235;-43
2022/05/12 03:00:07;;;;;;;15.68;8.73;;;;;;;;;;5017290;28;20263;-44
2022/05/12 03:02:34;;;;;;;13.00;8.98;;;;;;;;;;5017132;28;20300;-45
2022/05/12 03:05:01;;;;;;;13.05;8.45;;;;;;;;;;5049362;28;20620;-43
2022/05/12 03:07:28;;;;;;;10.05;8.73;;;;;;;;;;5017262;28;20711;-44
2022/05/12 03:09:55;;;;;;;16.75;8.43;;;;;;;;;;5017223;28;20197;-43
2022/05/12 03:12:23;;;;;;;10.88;8.38;;;;;;;;;;5017428;28;20232;-44
2022/05/12 03:14:50;;;;;;;11.27;7.95;;;;;;;;;;5017290;28;20209;-43
2022/05/12 03:17:17;;;;;;;11.68;8.95;;;;;;;;;;5017074;28;20202;-43
2022/05/12 03:19:44;;;;;;;10.85;8.68;;;;;;;;;;5017017;28;20217;-43
2022/05/12 03:22:12;;;;;;;12.25;8.38;;;;;;;;;;5016963;28;20213;-43
2022/05/12 03:24:39;;;;;;;12.23;8.45;;;;;;;;;;5017167;28;20767;-44
2022/05/12 03:27:06;;;;;;;10.57;8.02;;;;;;;;;;5017159;28;20216;-47
2022/05/12 03:29:33;;;;;;;13.90;8.30;;;;;;;;;;5017116;28;20204;-43
2022/05/12 03:32:00;;;;;;;13.70;8.60;;;;;;;;;;5016629;28;20714;-43
2022/05/12 03:34:27;;;;;;;10.45;8.27;;;;;;;;;;5017374;28;20201;-43
2022/05/12 03:36:54;;;;;;;12.57;7.93;;;;;;;;;;5017043;28;20223;-43
2022/05/12 03:39:21;;;;;;;8.95;7.35;;;;;;;;;;5016984;28;20213;-43
2022/05/12 03:41:49;;;;;;;11.73;7.95;;;;;;;;;;5016696;28;20201;-43
2022/05/12 03:47:02;;;;;;;11.63;8.02;;;;;;;;;;5016636;28;20205;-44
2022/05/12 03:49:29;;;;;;;12.77;7.80;;;;;;;;;;5016648;28;20194;-43
2022/05/12 03:51:56;;;;;;;11.85;7.70;;;;;;;;;;5016345;28;20241;-43
2022/05/12 03:54:23;;;;;;;15.43;8.57;;;;;;;;;;5016612;28;20213;-43
2022/05/12 03:56:50;;;;;;;11.80;7.75;;;;;;;;;;5016526;28;20284;-44
2022/05/12 03:59:17;;;;;;;10.82;7.68;;;;;;;;;;5016553;28;20215;-43
2022/05/12 04:01:45;;;;;;;12.65;8.43;;;;;;;;;;5029430;28;20263;-47
2022/05/12 04:04:12;;;;;;;10.57;7.85;;;;;;;;;;5023250;28;20212;-43
2022/05/12 04:06:40;;;;;;;9.38;8.05;;;;;;;;;;5030227;28;20196;-43
2022/05/12 04:09:07;;;;;;;11.20;7.53;;;;;;;;;;5016615;28;20209;-44
2022/05/12 04:11:34;;;;;;;11.82;7.38;;;;;;;;;;5020844;28;20671;-43
2022/05/12 04:14:04;;;;;;;12.07;7.75;;;;;;;;;;5037202;28;20618;-45
2022/05/12 04:16:32;;;;;;;12.45;7.38;;;;;;;;;;5041484;28;20231;-44
2022/05/12 04:18:59;;;;;;;15.30;7.85;;;;;;;;;;5044977;28;20220;-42
2022/05/12 04:21:26;;;;;;;10.20;7.53;;;;;;;;;;5042014;28;20319;-43
2022/05/12 04:23:53;;;;;;;12.80;7.93;;;;;;;;;;5037852;28;20545;-44
2022/05/12 04:26:21;;;;;;;14.30;7.20;;;;;;;;;;5042453;28;20242;-43
2022/05/12 04:28:48;;;;;;;8.63;6.68;;;;;;;;;;5054819;28;20560;-43
2022/05/12 04:31:16;;;;;;;12.45;7.25;;;;;;;;;;5054723;28;20508;-43
2022/05/12 04:36:28;;;;;;;12.10;7.15;;;;;;;;;;5054362;28;20238;-45
2022/05/12 04:38:55;;;;;;;11.52;6.93;;;;;;;;;;5054597;28;20216;-44
2022/05/12 04:41:22;;;;;;;13.88;7.00;;;;;;;;;;5053901;28;20275;-44
2022/05/12 04:43:49;;;;;;;15.38;6.82;;;;;;;;;;5054850;28;20231;-44
2022/05/12 04:46:16;;;;;;;12.50;6.30;;;;;;;;;;5054944;28;20224;-44
2022/05/12 04:48:43;;;;;;;9.23;5.82;;;;;;;;;;5054419;28;20244;-42
2022/05/12 04:51:10;;;;;;;9.63;6.32;;;;;;;;;;5031258;28;20311;-43
2022/05/12 04:53:38;;;;;;;12.57;5.43;;;;;;;;;;5033928;28;20627;-43
2022/05/12 04:56:05;;;;;;;8.70;5.60;;;;;;;;;;5039948;28;20224;-43
2022/05/12 04:58:32;;;;;;;9.18;6.40;;;;;;;;;;5054069;28;20231;-43
2022/05/12 05:00:59;;;;;;;7.65;5.50;;;;;;;;;;5054414;28;20235;-43
2022/05/12 05:03:26;;;;;;;9.30;5.45;;;;;;;;;;5053899;28;20647;-43
2022/05/12 05:05:53;;;;;;;11.80;5.15;;;;;;;;;;5054234;28;20239;-43
2022/05/12 05:08:22;;;;;;;9.80;5.30;;;;;;;;;;5054335;28;20228;-45
2022/05/12 05:10:49;;;;;;;9.40;5.63;;;;;;;;;;5053809;28;20238;-44
2022/05/12 05:13:21;;;;;;;8.05;4.97;;;;;;;;;;5047193;28;20236;-44
2022/05/12 05:15:50;;;;;;;11.35;5.43;;;;;;;;;;5034526;28;20239;-44
2022/05/12 05:18:18;;;;;;;13.00;5.75;;;;;;;;;;5034513;28;20527;-43
2022/05/12 05:20:46;;;;;;;10.40;5.30;;;;;;;;;;5034944;28;20208;-43
2022/05/12 05:23:21;;;;;;;12.15;5.53;;;;;;;;;;5034903;28;20215;-45
2022/05/12 05:25:49;;;;;;;14.35;5.05;;;;;;;;;;5035214;28;20208;-45
2022/05/12 05:28:16;;;;;;;13.40;5.53;;;;;;;;;;5034675;28;20254;-43
2022/05/12 05:30:44;;;;;;;14.48;5.55;;;;;;;;;;5034761;28;20200;-43
2022/05/12 05:33:11;;;;;;;9.73;5.18;;;;;;;;;;5034742;28;20232;-43
2022/05/12 05:35:38;;;;;;;8.52;4.60;;;;;;;;;;5033588;28;20208;-43
2022/05/12 05:38:05;;;;;;;17.30;5.25;;;;;;;;;;5037256;28;20204;-44
2022/05/12 05:40:32;;;;;;;11.77;5.13;;;;;;;;;;5039071;28;20196;-44
2022/05/12 05:43:00;;;;;;;9.25;4.53;;;;;;;;;;5038808;28;20274;-44
2022/05/12 05:45:27;;;;;;;14.20;4.38;;;;;;;;;;5038672;28;20204;-43
2022/05/12 05:47:58;;;;;;;10.18;4.53;;;;;;;;;;5039182;28;20574;-44
2022/05/12 05:53:36;;;;;;;15.18;4.88;;;;;;;;;;5038593;28;20196;-43
2022/05/12 05:56:06;;;;;;;20.83;4.70;;;;;;;;;;5039273;28;20193;-45
2022/05/12 05:58:33;;;;;;;10.65;4.32;;;;;;;;;;5038397;28;20635;-44
2022/05/12 06:01:00;;;;;;;7.95;4.20;;;;;;;;;;5038216;28;20215;-43
2022/05/12 06:03:27;;;;;;;17.00;4.18;;;;;;;;;;5038611;28;20215;-44
2022/05/12 06:05:56;;;;;;;12.00;5.03;;;;;;;;;;5038364;28;20510;-43
2022/05/12 06:08:23;;;;;;;14.45;4.95;;;;;;;;;;5038094;28;20205;-44
2022/05/12 06:11:00;;;;;;;11.25;4.65;;;;;;;;;;5038340;28;20193;-44
2022/05/12 06:13:27;;;;;;;12.93;4.60;;;;;;;;;;5038366;28;20225;-43
2022/05/12 06:15:54;;;;;;;20.73;4.80;;;;;;;;;;5038338;28;20197;-44
2022/05/12 06:18:21;;;;;;;26.10;4.97;;;;;;;;;;5038100;28;20604;-43
2022/05/12 06:20:49;;;;;;;12.88;4.40;;;;;;;;;;5037826;28;20644;-43
2022/05/12 06:23:17;;;;;;;16.50;4.68;;;;;;;;;;5037972;28;20209;-44
2022/05/12 06:25:44;;;;;;;13.45;4.30;;;;;;;;;;5037830;28;20204;-44
2022/05/12 06:28:11;;;;;;;8.98;4.07;;;;;;;;;;5038402;28;20204;-44
2022/05/12 06:30:39;;;;;;;14.23;3.97;;;;;;;;;;5037977;28;20213;-43
2022/05/12 06:33:07;;;;;;;15.93;4.03;;;;;;;;;;5037847;28;20225;-44
2022/05/12 06:35:34;;;;;;;11.23;4.38;;;;;;;;;;5037942;28;20587;-44
2022/05/12 06:38:01;;;;;;;13.35;3.80;;;;;;;;;;5037640;28;20192;-44
2022/05/12 06:40:28;;;;;;;14.52;4.25;;;;;;;;;;5037935;28;20228;-44
2022/05/12 06:42:55;;;;;;;9.90;4.25;;;;;;;;;;5038085;28;20223;-43
2022/05/12 06:45:25;;;;;;;17.52;4.15;;;;;;;;;;5037041;28;20516;-44
2022/05/12 06:47:53;;;;;;;16.10;4.43;;;;;;;;;;5037062;28;20247;-44
2022/05/12 06:50:26;;;;;;;11.57;4.20;;;;;;;;;;5038129;28;20566;-44
2022/05/12 06:52:56;;;;;;;11.40;4.25;;;;;;;;;;5037511;28;20236;-44
2022/05/12 06:55:24;;;;;;;16.92;5.07;;;;;;;;;;5037783;28;20204;-44
2022/05/12 06:57:51;;;;;;;16.92;4.03;;;;;;;;;;5037511;28;20201;-45
2022/05/12 07:00:18;;;;;;;10.05;4.25;;;;;;;;;;5037425;28;20200;-44
2022/05/12 07:02:47;;;;;;;10.98;4.38;;;;;;;;;;5037117;28;20216;-44
2022/05/12 07:05:17;;;;;;;13.15;4.22;;;;;;;;;;5037368;28;20227;-44
2022/05/12 07:07:44;;;;;;;17.63;4.53;;;;;;;;;;5036249;28;20235;-45
2022/05/12 07:10:13;;;;;;;12.77;3.80;;;;;;;;;;5037478;28;20201;-44
2022/05/12 07:12:44;;;;;;;13.70;3.90;;;;;;;;;;5036742;28;20217;-43
2022/05/12 07:15:13;;;;;;;10.20;4.40;;;;;;;;;;5036959;28;20215;-44
2022/05/12 07:17:43;;;;;;;18.10;3.78;;;;;;;;;;5037178;28;20213;-44
2022/05/12 07:28:33;;;;;;;19.95;4.25;;;;;;;;;;5036951;28;20597;-43
2022/05/12 07:31:01;;;;;;;10.23;3.83;;;;;;;;;;5036751;28;20216;-44
2022/05/12 07:33:46;;;;;;;18.30;3.78;;;;;;;;;;5036512;28;20232;-43
2022/05/12 07:36:20;;;;;;;12.80;3.50;;;;;;;;;;5036920;28;20580;-43
2022/05/12 07:38:47;;;;;;;9.00;3.53;;;;;;;;;;5036885;28;20200;-44
2022/05/12 07:41:16;;;;;;;9.82;3.90;;;;;;;;;;5036625;28;20219;-43
2022/05/12 07:43:45;;;;;;;12.63;3.97;;;;;;;;;;5036637;28;20224;-43
2022/05/12 07:46:14;;;;;;;10.50;4.10;;;;;;;;;;5036529;28;20213;-44
2022/05/12 07:48:42;;;;;;;13.18;4.05;;;;;;;;;;5036991;28;20239;-43
2022/05/12 07:51:09;;;;;;;10.65;3.97;;;;;;;;;;5036570;28;20227;-43
2022/05/12 07:53:37;;;;;;;9.45;3.88;;;;;;;;;;5036727;28;20228;-43
2022/05/12 07:56:05;;;;;;;13.93;3.88;;;;;;;;;;5036352;28;20197;-43
2022/05/12 07:58:32;;;;;;;11.18;3.90;;;;;;;;;;5036244;28;20674;-44
2022/05/12 08:00:59;;;;;;;15.02;3.85;;;;;;;;;;5035461;28;20205;-43
2022/05/12 08:03:26;;;;;;;12.70;4.38;;;;;;;;;;5036092;28;20726;-43
2022/05/12 08:05:53;;;;;;;18.88;4.18;;;;;;;;;;5036594;28;20205;-45
2022/05/12 08:08:21;;;;;;;7.13;3.63;;;;;;;;;;5035833;28;20208;-44
2022/05/12 08:10:47;;;;;;;14.02;3.60;;;;;;;;;;5035970;28;20643;-44
2022/05/12 08:13:16;;;;;;;9.73;3.90;;;;;;;;;;5035720;28;20567;-44
2022/05/12 08:15:48;;;;;;;17.25;3.85;;;;;;;;;;5035663;28;20674;-44
2022/05/12 08:18:21;;;;;;;19.77;4.20;;;;;;;;;;5035688;28;20247;-44
2022/05/12 08:20:49;;;;;;;12.32;3.90;;;;;;;;;;5036148;28;20262;-43
2022/05/12 08:23:16;;;;;;;10.02;3.78;;;;;;;;;;5035922;28;20212;-43
2022/05/12 08:25:44;;;;;;;13.45;3.85;;;;;;;;;;5035784;28;20299;-44
2022/05/12 08:28:16;;;;;;;10.32;4.25;;;;;;;;;;5035682;28;20647;-44
2022/05/12 08:30:44;;;;;;;10.13;3.97;;;;;;;;;;5035544;28;20212;-43
2022/05/12 08:33:11;;;;;;;13.73;3.80;;;;;;;;;;5035636;28;20238;-44
2022/05/12 08:35:40;;;;;;;23.67;4.00;;;;;;;;;;5035349;28;20663;-43
2022/05/12 08:38:07;;;;;;;16.08;4.53;;;;;;;;;;5034085;28;20215;-44
2022/05/12 08:40:44;;;;;;;16.55;4.28;;;;;;;;;;5036179;28;20217;-44
2022/05/12 08:43:14;;;;;;;15.23;4.10;;;;;;;;;;5034559;28;20624;-44
2022/05/12 08:45:43;;;;;;;12.93;4.30;;;;;;;;;;5034551;28;20201;-43
2022/05/12 08:48:12;;;;;;;14.07;4.00;;;;;;;;;;5035450;28;20279;-44
2022/05/12 08:50:40;;;;;;;11.10;3.88;;;;;;;;;;5034074;28;20237;-43
2022/05/12 08:53:12;;;;;;;32.50;4.75;;;;;;;;;;5035357;28;20224;-43
2022/05/12 08:55:59;;;;;;;10.60;4.07;;;;;;;;;;5035193;28;20204;-43
2022/05/12 08:58:35;;;;;;;12.57;4.30;;;;;;;;;;5035707;28;20612;-44
2022/05/12 09:01:17;;;;;;;14.80;3.90;;;;;;;;;;5035458;28;20208;-44
2022/05/12 09:04:12;;;;;;;15.82;3.72;;;;;;;;;;5015610;28;20204;-44
2022/05/12 09:07:08;;;;;;;18.83;3.70;;;;;;;;;;5015225;28;20597;-44
2022/05/12 09:09:44;;;;;;;23.00;3.47;;;;;;;;;;5015510;28;20201;-44
2022/05/12 09:12:32;;;;;;;46.28;5.90;;;;;;;;;;5030702;28;20209;-44
2022/05/12 09:15:00;;;;;;;14.65;3.25;;;;;;;;;;5014706;28;20371;-44
2022/05/12 09:17:41;;;;;;;36.50;4.45;;;;;;;;;;5015238;28;20522;-44
2022/05/12 09:20:10;;;;;;;20.70;3.47;;;;;;;;;;5015011;28;20271;-44
2022/05/12 09:22:39;;;;;;;56.42;5.82;;;;;;;;;;5015318;28;20232;-44
2022/05/12 09:25:07;;;;;;;19.25;3.08;;;;;;;;;;5014950;28;20206;-44
2022/05/12 09:27:37;;;;;;;26.77;3.72;;;;;;;;;;5014280;28;20263;-44
2022/05/12 09:30:09;;;;;;;15.48;3.33;;;;;;;;;;5015166;28;20204;-45
2022/05/12 09:32:39;;;;;;;25.23;3.67;;;;;;;;;;5015096;28;20213;-44
2022/05/12 09:35:20;;;;;;;13.57;3.03;;;;;;;;;;5014270;28;20205;-44
2022/05/12 09:37:49;;;;;;;11.60;3.47;;;;;;;;;;5015088;28;20208;-44
2022/05/12 09:40:19;;;;;;;12.80;3.13;;;;;;;;;;5014244;28;20201;-44
2022/05/12 09:42:52;;;;;;;18.60;3.75;;;;;;;;;;5015019;28;20202;-44
2022/05/12 09:45:25;;;;;;;25.52;3.10;;;;;;;;;;5015422;28;20201;-44
2022/05/12 09:48:09;;;;;;;67.50;5.25;;;;;;;;;;5015169;28;20182;-45
2022/05/12 09:50:39;;;;;;;49.17;4.57;;;;;;;;;;5014751;28;20233;-44
2022/05/12 09:53:09;;;;;;;20.15;3.17;;;;;;;;;;5014778;28;20711;-44
2022/05/12 09:55:56;;;;;;;25.38;3.78;;;;;;;;;;5014602;28;20292;-44
2022/05/12 09:58:29;;;;;;;19.60;3.25;;;;;;;;;;5014734;28;20201;-44
2022/05/12 10:01:11;;;;;;;15.68;3.10;;;;;;;;;;5014571;28;20610;-44
2022/05/12 10:09:25;;;;;;;25.33;4.22;;;;;;;;;;5014976;28;20213;-44
2022/05/12 10:12:07;;;;;;;22.45;3.30;;;;;;;;;;5014670;28;20192;-44
2022/05/12 10:14:50;;;;;;;24.45;3.72;;;;;;;;;;5015375;28;20224;-45
2022/05/12 10:17:42;;;;;;;28.95;3.25;;;;;;;;;;5013926;28;20590;-44
2022/05/12 10:20:12;;;;;;;26.73;3.03;;;;;;;;;;5014312;28;20224;-44
2022/05/12 10:22:52;;;;;;;23.55;3.33;;;;;;;;;;5014547;28;20213;-44
2022/05/12 10:25:35;;;;;;;24.30;3.42;;;;;;;;;;5018519;28;20201;-44
2022/05/12 10:28:16;;;;;;;29.63;4.38;;;;;;;;;;5018254;28;20631;-44
2022/05/12 10:30:49;;;;;;;24.15;3.05;;;;;;;;;;5017370;28;20520;-44
2022/05/12 10:33:30;;;;;;;19.65;3.25;;;;;;;;;;5018200;28;20209;-44
2022/05/12 10:36:04;;;;;;;18.77;3.47;;;;;;;;;;5018313;28;20209;-44
2022/05/12 10:38:43;;;;;;;18.10;3.20;;;;;;;;;;5018287;28;20275;-45
2022/05/12 10:41:35;;;;;;;16.92;3.00;;;;;;;;;;5018079;28;20197;-45
2022/05/12 10:44:16;;;;;;;17.25;3.17;;;;;;;;;;5017194;28;20209;-45
2022/05/12 10:47:01;;;;;;;19.15;3.65;;;;;;;;;;5018236;28;20192;-45
2022/05/12 10:49:43;;;;;;;29.85;3.75;;;;;;;;;;5017251;28;20525;-45
2022/05/12 10:52:27;;;;;;;27.92;4.00;;;;;;;;;;5017867;28;20248;-44
2022/05/12 10:55:18;;;;;;;21.95;3.90;;;;;;;;;;5017953;28;20205;-44
2022/05/12 10:58:04;;;;;;;23.15;3.88;;;;;;;;;;5017471;28;20216;-44
2022/05/12 11:00:55;;;;;;;25.15;4.90;;;;;;;;;;5018362;28;20189;-44
2022/05/12 11:03:27;;;;;;;32.40;4.93;;;;;;;;;;5017412;28;20263;-45
2022/05/12 11:05:57;;;;;;;20.08;4.65;;;;;;;;;;5017538;28;20214;-44
2022/05/12 11:08:47;;;;;;;21.38;4.88;;;;;;;;;;5033596;28;20198;-44
2022/05/12 11:11:18;;;;;;;31.67;5.45;;;;;;;;;;5033032;28;20621;-45
2022/05/12 11:13:57;;;;;;;23.25;4.78;;;;;;;;;;5017346;28;20233;-44
2022/05/12 11:16:26;;;;;;;21.77;4.75;;;;;;;;;;5017489;28;20216;-49
2022/05/12 11:19:01;;;;;;;21.17;4.22;;;;;;;;;;5017193;28;20205;-48
2022/05/12 11:21:29;;;;;;;25.52;4.97;;;;;;;;;;5016377;28;20272;-48
2022/05/12 11:24:15;;;;;;;18.77;4.93;;;;;;;;;;5017371;28;20284;-48
2022/05/12 11:27:04;;;;;;;27.00;4.78;;;;;;;;;;5016952;28;20190;-50
2022/05/12 11:29:56;;;;;;;31.23;5.30;;;;;;;;;;5017599;28;20224;-49
2022/05/12 11:32:56;;;;;;;19.77;5.38;;;;;;;;;;5017173;28;20212;-49
2022/05/12 11:35:28;;;;;;;24.60;5.00;;;;;;;;;;5016172;28;20198;-60
2022/05/12 11:37:57;;;;;;;22.77;5.13;;;;;;;;;;5016162;28;20198;-60
2022/05/12 11:40:40;;;;;;;17.98;5.00;;;;;;;;;;5017080;28;20221;-59
2022/05/12 11:46:19;;;;;;;16.27;4.65;;;;;;;;;;5016857;28;20205;-59
2022/05/12 11:49:25;;;;;;;21.50;3.92;;;;;;;;;;5016769;28;20304;-59
2022/05/12 11:52:11;;;;;;;12.18;5.32;;;;;;;;;;5016698;28;20244;-59
2022/05/12 11:54:41;;;;;;;16.77;4.03;;;;;;;;;;5017200;28;20236;-60
2022/05/12 11:57:22;;;;;;;13.93;3.83;;;;;;;;;;5015622;28;20531;-60
2022/05/12 11:59:54;;;;;;;18.88;4.20;;;;;;;;;;5016820;28;20535;-61
2022/05/12 12:02:48;;;;;;;18.23;5.07;;;;;;;;;;5016508;28;20244;-60
2022/05/12 12:05:27;;;;;;;17.30;3.67;;;;;;;;;;5015374;28;20607;-61
2022/05/12 12:08:02;;;;;;;26.35;3.95;;;;;;;;;;5016313;28;20688;-60
2022/05/12 12:10:35;;;;;;;20.38;4.07;;;;;;;;;;5016382;28;20205;-59
2022/05/12 12:13:14;;;;;;;14.60;2.80;;;;;;;;;;5016276;28;20228;-60
2022/05/12 12:16:03;;;;;;;19.10;3.30;;;;;;;;;;5016075;28;20193;-60
2022/05/12 12:18:30;;;;;;;27.40;3.80;;;;;;;;;;5016083;28;20268;-60
2022/05/12 12:20:59;;;;;;;19.13;3.00;;;;;;;;;;5016113;28;20197;-60
2022/05/12 12:23:31;;;;;;;11.45;2.80;;;;;;;;;;5016879;28;20287;-61
2022/05/12 12:26:01;;;;;;;11.63;2.42;;;;;;;;;;5016039;28;20214;-61
2022/05/12 12:28:34;;;;;;;20.80;2.75;;;;;;;;;;5015984;28;20212;-61
2022/05/12 12:31:08;;;;;;;22.13;2.45;;;;;;;;;;5015956;28;20529;-61
2022/05/12 12:33:40;;;;;;;9.52;1.60;;;;;;;;;;5015087;28;20252;-61
2022/05/12 12:36:12;;;;;;;47.60;2.85;;;;;;;;;;5016170;28;20185;-60
2022/05/12 12:38:48;;;;;;;19.05;2.33;;;;;;;;;;5015783;28;20201;-62
2022/05/12 12:41:30;;;;;;;18.25;1.45;;;;;;;;;;5015550;28;20201;-61
2022/05/12 12:44:18;;;;;;;29.20;2.30;;;;;;;;;;5015834;28;20536;-61
2022/05/12 12:46:54;;;;;;;24.92;2.25;;;;;;;;;;5015509;28;20527;-61
2022/05/12 12:49:34;;;;;;;15.00;2.30;;;;;;;;;;5015683;28;20216;-61
2022/05/12 12:52:10;;;;;;;21.48;1.88;;;;;;;;;;5014618;28;20260;-61
2022/05/12 12:57:25;;;;;;;12.57;1.90;;;;;;;;;;5015468;28;20205;-61
2022/05/12 12:59:56;;;;;;;16.08;1.75;;;;;;;;;;5015347;28;20205;-61
2022/05/12 13:02:28;;;;;;;14.18;2.28;;;;;;;;;;5030359;28;20239;-61
2022/05/12 13:04:57;;;;;;;20.15;2.03;;;;;;;;;;5035169;28;20208;-61
2022/05/12 13:07:32;;;;;;;6.25;1.40;;;;;;;;;;5033639;28;20216;-61
2022/05/12 13:10:03;;;;;;;19.98;1.80;;;;;;;;;;5018444;28;20655;-63
2022/05/12 13:12:30;;;;;;;18.35;1.67;;;;;;;;;;5035639;28;20230;-62
2022/05/12 13:15:00;;;;;;;19.58;2.00;;;;;;;;;;5031173;28;20309;-61
2022/05/12 13:17:38;;;;;;;25.83;2.30;;;;;;;;;;5046235;28;20280;-62
2022/05/12 13:20:17;;;;;;;27.33;2.40;;;;;;;;;;5045533;28;20229;-56
2022/05/12 13:22:48;;;;;;;19.35;1.40;;;;;;;;;;5046204;28;20739;-59
2022/05/12 13:25:30;;;;;;;7.65;1.33;;;;;;;;;;5040976;28;20330;-60
2022/05/12 13:27:57;;;;;;;12.70;1.50;;;;;;;;;;5054315;28;20231;-60
2022/05/12 13:30:46;;;;;;;15.00;1.35;;;;;;;;;;5052711;28;20220;-60
2022/05/12 13:33:25;;;;;;;15.63;2.95;;;;;;;;;;5054204;28;20228;-60
2022/05/12 13:36:01;;;;;;;19.73;1.60;;;;;;;;;;5043511;28;20224;-59
2022/05/12 13:38:31;;;;;;;20.33;1.35;;;;;;;;;;5032399;28;20553;-60
2022/05/12 13:41:00;;;;;;;10.55;1.58;;;;;;;;;;5029906;28;20728;-59
2022/05/12 13:43:28;;;;;;;16.65;1.45;;;;;;;;;;5022793;28;20213;-60
2022/05/12 13:46:06;;;;;;;22.77;1.98;;;;;;;;;;5030076;28;20216;-61
2022/05/12 13:48:34;;;;;;;15.40;1.70;;;;;;;;;;5032822;28;20663;-61
2022/05/12 13:51:02;;;;;;;18.23;1.60;;;;;;;;;;5032664;28;20235;-60
2022/05/12 13:53:52;;;;;;;31.20;1.70;;;;;;;;;;5030315;28;20594;-60
2022/05/12 13:56:45;;;;;;;21.90;1.63;;;;;;;;;;5033777;28;20232;-59
2022/05/12 13:59:15;;;;;;;15.65;1.50;;;;;;;;;;5032831;28;20536;-58
2022/05/12 14:01:42;;;;;;;19.25;1.40;;;;;;;;;;5036826;28;20228;-59
2022/05/12 14:04:09;;;;;;;12.68;1.77;;;;;;;;;;5037254;28;20562;-60
2022/05/12 14:06:42;;;;;;;15.60;1.40;;;;;;;;;;5037520;28;20294;-61
2022/05/12 14:09:16;;;;;;;13.68;1.35;;;;;;;;;;5035056;28;20659;-61
2022/05/12 14:12:09;;;;;;;14.00;1.73;;;;;;;;;;5032323;28;20224;-59
2022/05/12 14:20:21;;;;;;;12.40;1.42;;;;;;;;;;5034906;28;20542;-59
2022/05/12 14:22:49;;;;;;;9.77;1.60;;;;;;;;;;5035388;28;20217;-60
2022/05/12 14:25:17;;;;;;;22.10;1.70;;;;;;;;;;5036760;28;20286;-60
2022/05/12 14:27:44;;;;;;;21.85;2.00;;;;;;;;;;5033746;28;20229;-63
2022/05/12 14:30:13;;;;;;;8.48;1.40;;;;;;;;;;5034862;28;20227;-60
2022/05/12 14:32:47;;;;;;;19.42;1.90;;;;;;;;;;5036471;28;20221;-61
2022/05/12 14:35:20;;;;;;;10.70;1.75;;;;;;;;;;5036758;28;20236;-61
2022/05/12 14:37:50;;;;;;;13.20;1.38;;;;;;;;;;5034705;28;20235;-62
2022/05/12 14:40:24;;;;;;;19.10;1.90;;;;;;;;;;5035936;28;20232;-60
2022/05/12 14:42:51;;;;;;;15.63;1.77;;;;;;;;;;5036593;28;20217;-60
2022/05/12 14:45:19;;;;;;;9.55;1.85;;;;;;;;;;5036149;28;20560;-63
2022/05/12 14:47:48;;;;;;;20.65;2.05;;;;;;;;;;5036146;28;20282;-59
2022/05/12 14:50:19;;;;;;;12.00;1.67;;;;;;;;;;5035404;28;20683;-59
2022/05/12 14:52:46;;;;;;;12.82;1.60;;;;;;;;;;5016993;28;20613;-60
2022/05/12 14:55:13;;;;;;;19.25;1.92;;;;;;;;;;5032555;28;20236;-60
2022/05/12 14:57:40;;;;;;;17.10;1.75;;;;;;;;;;5056384;28;20227;-60
2022/05/12 15:00:08;;;;;;;19.20;1.90;;;;;;;;;;5057036;28;20337;-59
2022/05/12 15:02:38;;;;;;;15.02;2.20;;;;;;;;;;5053654;28;20220;-60
2022/05/12 15:05:07;;;;;;;20.55;1.85;;;;;;;;;;5036168;28;20228;-60
2022/05/12 15:07:36;;;;;;;18.70;1.70;;;;;;;;;;5035778;28;20578;-59
2022/05/12 15:10:08;;;;;;;23.77;2.47;;;;;;;;;;5034353;28;20274;-60
2022/05/12 15:12:35;;;;;;;22.45;2.00;;;;;;;;;;5035841;28;20232;-60
2022/05/12 15:15:03;;;;;;;15.20;1.90;;;;;;;;;;5035521;28;20294;-60
2022/05/12 15:17:32;;;;;;;15.75;1.92;;;;;;;;;;5036136;28;20244;-60
2022/05/12 15:20:01;;;;;;;20.42;1.60;;;;;;;;;;5036468;28;20244;-59
2022/05/12 15:22:28;;;;;;;10.00;1.55;;;;;;;;;;5036121;28;20229;-60
2022/05/12 15:24:55;;;;;;;19.77;2.10;;;;;;;;;;5041470;28;20224;-60
2022/05/12 15:27:29;;;;;;;26.05;2.05;;;;;;;;;;5053455;28;20223;-60
2022/05/12 15:29:57;;;;;;;18.73;2.03;;;;;;;;;;5047250;28;20228;-59